»·PEaware :: N3891R KSNA-KBUR

N3891R :: KSNA-KBUR

FLIGHT INFORMATION

Flight Status: Arrived
Operator: Privately registered:
United States
More flights under this callsign
Pilot: Markus B. (22479)
Aircraft: CESSNA 172 SKYHAWK
(C172)
More flights by this aircraft type
Origin: KSNA John Wayne-Orange Co
United States
Destination: KBUR Bob Hope-Burbank
United States
More flights between these airports :: More routes between these airports
Route: +SLI V23 POPPR SMO125R SMO SMO311R SILEX
File this flight plan on PilotEdge
Remarks:
Altitude:
(Current/Filed)
4,000ft
Speed:
(Current/Filed)
120kts
Departed: 31-Dec-18 09:57 AM
Arrived: 31-Dec-18 10:35 AM
Distance/Time
Traveled:
0nm/0:38
Distance/Time
To Go:
Arrived

Flight Plot

Page will automatically refresh every two minutes.


Map Options




Map Legend


Flown Route
Filed Route
Departure Airport
Arrival Airport
Navaid (VOR, NDB)
Fix

Horizontal Profiles

Position Reports

Time Latitude Longitude Heading Altitude Ground
Speed
31-Dec-18 09:43 33.675660 -117.871272 211 60ft 0kts
31-Dec-18 09:44 33.675660 -117.871272 211 60ft 0kts
31-Dec-18 09:45 33.675660 -117.871272 211 60ft 0kts
31-Dec-18 09:46 33.675660 -117.871272 211 60ft 0kts
31-Dec-18 09:48 33.675660 -117.871272 211 60ft 0kts
31-Dec-18 09:49 33.675660 -117.871272 211 60ft 0kts
31-Dec-18 09:50 33.675660 -117.871272 211 60ft 0kts
31-Dec-18 09:51 33.675660 -117.871272 211 60ft 0kts
31-Dec-18 09:52 33.676289 -117.869909 26 60ft 14kts
31-Dec-18 09:53 33.680807 -117.867257 35 60ft 14kts
31-Dec-18 09:54 33.681240 -117.866678 98 60ft 0kts
31-Dec-18 09:55 33.681239 -117.866673 98 60ft 0kts
31-Dec-18 09:56 33.681239 -117.866673 97 60ft 0kts
31-Dec-18 09:57 33.672560 -117.871804 222 368ft 74kts
31-Dec-18 09:58 33.656311 -117.896731 235 988ft 107kts
31-Dec-18 09:59 33.638997 -117.927041 235 1589ft 111kts
31-Dec-18 10:00 33.622068 -117.959005 260 1947ft 126kts
31-Dec-18 10:01 33.634509 -117.997202 341 1937ft 131kts
31-Dec-18 10:02 33.669142 -118.003046 345 2238ft 116kts
31-Dec-18 10:03 33.697641 -118.017195 336 2830ft 109kts
31-Dec-18 10:04 33.725559 -118.030623 339 3428ft 107kts
31-Dec-18 10:05 33.753692 -118.041964 343 3939ft 113kts
31-Dec-18 10:05 33.779846 -118.052790 321 3935ft 117kts
31-Dec-18 10:07 33.793836 -118.093208 287 3928ft 112kts
31-Dec-18 10:08 33.803077 -118.129006 287 3928ft 112kts
31-Dec-18 10:08 33.810604 -118.158468 287 3928ft 112kts
31-Dec-18 10:09 33.819675 -118.194282 286 3922ft 113kts
31-Dec-18 10:10 33.827520 -118.230592 286 3939ft 112kts
31-Dec-18 10:11 33.837431 -118.265811 286 3935ft 112kts
31-Dec-18 10:13 33.858030 -118.300199 317 3895ft 113kts
31-Dec-18 10:13 33.878063 -118.319677 323 3938ft 110kts
31-Dec-18 10:14 33.901440 -118.344238 318 3938ft 112kts
31-Dec-18 10:15 33.925003 -118.368580 316 3954ft 111kts
31-Dec-18 10:16 33.949354 -118.391689 315 3957ft 112kts
31-Dec-18 10:17 33.973176 -118.416199 323 3952ft 112kts
31-Dec-18 10:18 33.995675 -118.442080 319 3958ft 112kts
31-Dec-18 10:19 34.020501 -118.464794 326 3965ft 112kts
31-Dec-18 10:20 34.046412 -118.485683 326 3965ft 112kts
31-Dec-18 10:21 34.072379 -118.506687 326 3965ft 112kts
31-Dec-18 10:22 34.098434 -118.527433 327 3965ft 112kts
31-Dec-18 10:23 34.124570 -118.547350 328 3965ft 112kts
31-Dec-18 10:24 34.152216 -118.568535 326 3599ft 124kts
31-Dec-18 10:25 34.180548 -118.593139 324 3000ft 126kts
31-Dec-18 10:26 34.200410 -118.580329 63 3317ft 81kts
31-Dec-18 10:27 34.197040 -118.551251 84 3197ft 109kts
31-Dec-18 10:28 34.198772 -118.514126 80 2929ft 115kts
31-Dec-18 10:29 34.198364 -118.478254 87 2618ft 106kts
31-Dec-18 10:30 34.200520 -118.441766 96 2036ft 97kts
31-Dec-18 10:31 34.198130 -118.413950 89 1512ft 78kts
31-Dec-18 10:32 34.198078 -118.386327 91 1096ft 85kts
31-Dec-18 10:33 34.197787 -118.362274 93 781ft 46kts
31-Dec-18 10:34 34.197731 -118.356881 75 781ft 0kts
31-Dec-18 10:35 34.198010 -118.352414 46 781ft 21kts
31-Dec-18 10:36 34.198831 -118.353260 271 781ft 20kts
31-Dec-18 10:37 34.199085 -118.364418 273 781ft 29kts
31-Dec-18 10:38 34.199348 -118.367569 87 781ft 12kts
31-Dec-18 10:39 34.200321 -118.365446 91 781ft 0kts
31-Dec-18 10:40 33.682178 -117.860507 288 60ft 8kts
31-Dec-18 10:41 33.667705 -117.872457 327 392ft 69kts
31-Dec-18 10:42 33.681087 -117.866328 295 60ft 13kts
31-Dec-18 10:43 33.678397 -117.868576 206 60ft 20kts
31-Dec-18 10:44 33.676172 -117.870930 213 60ft 0kts
31-Dec-18 10:45 33.676172 -117.870930 213 60ft 0kts
31-Dec-18 10:46 33.676172 -117.870930 213 60ft 0kts
31-Dec-18 10:47 33.676172 -117.870930 213 60ft 0kts
31-Dec-18 10:48 33.676172 -117.870930 213 60ft 0kts

Navigation Log

Ident Type
Flight plan parsing failed, navigation log unavailable